createdAt,value
2018-12-01T00:01:19.838Z,7.30
2018-12-01T00:03:47.906Z,7.30
2018-12-01T00:06:15.991Z,7.30
2018-12-01T00:08:44.066Z,7.30
2018-12-01T00:11:12.138Z,7.20
2018-12-01T00:13:40.218Z,7.20
2018-12-01T00:16:08.281Z,7.10
2018-12-01T00:18:36.369Z,7.10
2018-12-01T00:21:04.442Z,7.10
2018-12-01T00:23:32.524Z,7.10
2018-12-01T00:26:00.602Z,7.10
2018-12-01T00:28:28.686Z,7.20
2018-12-01T00:30:56.762Z,7.20
2018-12-01T00:33:24.841Z,7.30
2018-12-01T00:35:52.906Z,7.20
2018-12-01T00:38:20.976Z,7.10
2018-12-01T00:40:49.042Z,7.10
2018-12-01T00:43:17.114Z,7.10
2018-12-01T00:45:45.178Z,7.20
2018-12-01T00:48:13.249Z,7.20
2018-12-01T00:50:41.322Z,7.30
2018-12-01T00:53:09.390Z,7.30
2018-12-01T00:55:37.476Z,7.40
2018-12-01T00:58:05.658Z,7.50
2018-12-01T01:00:33.727Z,7.50
2018-12-01T01:03:01.797Z,7.60
2018-12-01T01:05:31.346Z,7.60
2018-12-01T01:08:00.306Z,7.60
2018-12-01T01:10:31.545Z,7.60
2018-12-01T01:12:59.599Z,7.50
2018-12-01T01:15:27.654Z,7.50
2018-12-01T01:17:55.699Z,7.50
2018-12-01T01:20:24.307Z,7.50
2018-12-01T01:22:52.531Z,7.40
2018-12-01T01:25:20.623Z,7.30
2018-12-01T01:27:48.669Z,7.20
2018-12-01T01:30:20.342Z,7.10
2018-12-01T01:32:48.914Z,7.10
2018-12-01T01:35:16.970Z,7.00
2018-12-01T01:37:45.029Z,7.00
2018-12-01T01:40:18.271Z,6.90
2018-12-01T01:42:46.353Z,6.90
2018-12-01T01:45:18.462Z,6.90
2018-12-01T01:47:46.644Z,6.80
2018-12-01T01:50:16.877Z,6.70
2018-12-01T01:52:44.930Z,6.70
2018-12-01T01:55:12.979Z,6.70
2018-12-01T01:57:41.200Z,6.80
2018-12-01T02:00:13.786Z,6.80
2018-12-01T02:02:43.139Z,6.90
2018-12-01T02:05:11.203Z,6.80
2018-12-01T02:07:39.258Z,6.80
2018-12-01T02:10:08.118Z,6.80
2018-12-01T02:12:36.169Z,6.60
2018-12-01T02:15:05.266Z,6.50
2018-12-01T02:17:33.316Z,6.40
2018-12-01T02:20:01.383Z,6.30
2018-12-01T02:22:29.426Z,6.20
2018-12-01T02:24:57.498Z,6.20
2018-12-01T02:27:25.549Z,6.10
2018-12-01T02:29:53.594Z,6.20
2018-12-01T02:32:21.647Z,6.30
2018-12-01T02:34:49.704Z,6.30
2018-12-01T02:37:17.751Z,6.20
2018-12-01T02:39:45.799Z,6.30
2018-12-01T02:42:13.858Z,6.40
2018-12-01T02:45:06.554Z,6.40
2018-12-01T02:47:34.623Z,6.40
2018-12-01T02:50:03.275Z,6.40
2018-12-01T02:52:31.327Z,6.30
2018-12-01T02:54:59.376Z,6.40
2018-12-01T02:57:27.434Z,6.40
2018-12-01T02:59:55.499Z,6.40
2018-12-01T03:02:25.102Z,6.40
2018-12-01T03:04:53.767Z,6.40
2018-12-01T03:07:21.970Z,6.30
2018-12-01T03:09:50.034Z,6.40
2018-12-01T03:12:19.087Z,6.40
2018-12-01T03:14:47.126Z,6.40
2018-12-01T03:17:15.166Z,6.50
2018-12-01T03:19:43.213Z,6.50
2018-12-01T03:22:11.264Z,6.60
2018-12-01T03:24:39.290Z,6.60
2018-12-01T03:27:07.326Z,6.60
2018-12-01T03:29:35.368Z,6.60
2018-12-01T03:32:03.415Z,6.50
2018-12-01T03:34:31.462Z,6.50
2018-12-01T03:36:59.514Z,6.50
2018-12-01T03:39:27.550Z,6.40
2018-12-01T03:41:55.594Z,6.40
2018-12-01T03:44:23.638Z,6.40
2018-12-01T03:46:51.678Z,6.30
2018-12-01T03:49:19.740Z,6.30
2018-12-01T03:51:47.777Z,6.20
2018-12-01T03:54:15.830Z,6.20
2018-12-01T03:56:43.875Z,6.10
2018-12-01T03:59:11.922Z,6.10
2018-12-01T04:01:39.959Z,6.10
2018-12-01T04:04:08.002Z,6.00
2018-12-01T04:06:36.050Z,6.00
2018-12-01T04:09:12.633Z,6.10
2018-12-01T04:11:41.849Z,6.10
2018-12-01T04:14:10.042Z,6.20
2018-12-01T04:16:38.218Z,6.30
2018-12-01T04:19:06.270Z,6.30
2018-12-01T04:21:34.309Z,6.40
2018-12-01T04:24:02.353Z,6.50
2018-12-01T04:26:30.390Z,6.50
2018-12-01T04:28:58.433Z,6.60
2018-12-01T04:31:26.469Z,6.60
2018-12-01T04:33:54.516Z,6.60
2018-12-01T04:36:22.550Z,6.60
2018-12-01T04:38:50.593Z,6.60
2018-12-01T04:41:18.629Z,6.40
2018-12-01T04:43:46.768Z,6.40
2018-12-01T04:46:14.790Z,6.40
2018-12-01T04:48:42.831Z,6.40
2018-12-01T04:51:10.870Z,6.50
2018-12-01T04:53:38.905Z,6.50
2018-12-01T04:56:06.953Z,6.50
2018-12-01T04:58:36.021Z,6.50
2018-12-01T05:01:04.070Z,6.50
2018-12-01T05:03:32.109Z,6.60
2018-12-01T05:06:00.155Z,6.60
2018-12-01T05:08:28.210Z,6.60
2018-12-01T05:10:56.262Z,6.60
2018-12-01T05:13:24.304Z,6.60
2018-12-01T05:15:52.382Z,6.60
2018-12-01T05:18:20.402Z,6.60
2018-12-01T05:20:48.506Z,6.60
2018-12-01T05:23:16.552Z,6.60
2018-12-01T05:25:44.610Z,6.50
2018-12-01T05:28:12.693Z,6.30
2018-12-01T05:30:40.731Z,6.20
2018-12-01T05:33:08.766Z,6.10
2018-12-01T05:35:36.818Z,6.00
2018-12-01T05:38:05.054Z,5.90
2018-12-01T05:40:33.126Z,5.80
2018-12-01T05:43:01.174Z,5.70
2018-12-01T05:45:29.211Z,5.70
2018-12-01T05:47:57.249Z,5.60
2018-12-01T05:50:26.018Z,5.60
2018-12-01T05:52:54.974Z,5.60
2018-12-01T05:55:23.021Z,5.60
2018-12-01T05:57:51.075Z,5.50
2018-12-01T06:00:19.274Z,5.50
2018-12-01T06:02:47.313Z,5.40
2018-12-01T06:05:15.351Z,5.40
2018-12-01T06:07:43.780Z,5.40
2018-12-01T06:10:25.387Z,5.50
2018-12-01T06:12:53.361Z,5.50
2018-12-01T06:15:21.725Z,5.40
2018-12-01T06:17:49.775Z,5.40
2018-12-01T06:20:20.062Z,5.40
2018-12-01T06:22:48.106Z,5.40
2018-12-01T06:25:17.257Z,5.40
2018-12-01T06:27:45.342Z,5.50
2018-12-01T06:30:16.302Z,5.60
2018-12-01T06:32:44.690Z,5.60
2018-12-01T06:35:12.723Z,5.50
2018-12-01T06:37:40.912Z,5.50
2018-12-01T06:40:12.231Z,5.50
2018-12-01T06:42:40.266Z,5.60
2018-12-01T06:45:10.361Z,5.60
2018-12-01T06:47:38.534Z,5.60
2018-12-01T06:50:09.647Z,5.60
2018-12-01T06:52:37.745Z,5.60
2018-12-01T06:55:07.078Z,5.70
2018-12-01T06:57:35.126Z,5.70
2018-12-01T07:00:03.185Z,5.70
2018-12-01T07:02:31.266Z,5.70
2018-12-01T07:04:59.302Z,5.70
2018-12-01T07:07:27.362Z,5.70
2018-12-01T07:09:55.418Z,5.70
2018-12-01T07:12:23.454Z,5.70
2018-12-01T07:14:51.522Z,5.70
2018-12-01T07:17:19.585Z,5.70
2018-12-01T07:19:47.634Z,5.70
2018-12-01T07:22:15.674Z,5.80
2018-12-01T07:24:43.722Z,5.80
2018-12-01T07:27:11.762Z,5.80
2018-12-01T07:29:39.806Z,5.80
2018-12-01T07:32:07.838Z,5.80
2018-12-01T07:34:35.882Z,5.80
2018-12-01T07:37:03.914Z,5.80
2018-12-01T07:39:31.994Z,5.90
2018-12-01T07:42:00.046Z,5.90
2018-12-01T07:44:28.094Z,6.00
2018-12-01T07:46:56.130Z,6.10
2018-12-01T07:49:24.174Z,6.10
2018-12-01T07:51:52.225Z,6.20
2018-12-01T07:54:20.352Z,6.30
2018-12-01T07:56:48.378Z,6.40
2018-12-01T07:59:16.434Z,6.30
2018-12-01T08:01:44.490Z,6.40
2018-12-01T08:04:12.542Z,6.40
2018-12-01T08:06:40.586Z,6.40
2018-12-01T08:09:08.629Z,6.40
2018-12-01T08:11:36.662Z,6.40
2018-12-01T08:14:05.023Z,6.40
2018-12-01T08:16:33.074Z,6.40
2018-12-01T08:19:01.118Z,6.50
2018-12-01T08:21:29.154Z,6.50
2018-12-01T08:23:57.203Z,6.50
2018-12-01T08:26:25.281Z,6.60
2018-12-01T08:28:53.335Z,6.70
2018-12-01T08:31:21.370Z,6.80
2018-12-01T08:33:49.426Z,6.90
2018-12-01T08:36:17.462Z,6.90
2018-12-01T08:38:45.509Z,6.90
2018-12-01T08:41:13.554Z,6.90
2018-12-01T08:43:41.592Z,7.00
2018-12-01T08:46:09.643Z,7.10
2018-12-01T08:48:37.686Z,7.20
2018-12-01T08:51:05.988Z,7.30
2018-12-01T08:53:34.030Z,7.40
2018-12-01T08:56:02.082Z,7.50
2018-12-01T08:58:30.130Z,7.60
2018-12-01T09:00:58.190Z,7.80
2018-12-01T09:03:26.230Z,7.90
2018-12-01T09:05:54.290Z,8.00
2018-12-01T09:08:22.346Z,8.20
2018-12-01T09:10:50.385Z,8.40
2018-12-01T09:13:18.426Z,8.70
2018-12-01T09:15:46.474Z,8.80
2018-12-01T09:18:14.514Z,8.70
2018-12-01T09:20:42.549Z,8.70
2018-12-01T09:23:10.605Z,8.60
2018-12-01T09:25:38.651Z,8.60
2018-12-01T09:28:07.825Z,8.60
2018-12-01T09:30:37.245Z,8.60
2018-12-01T09:33:05.575Z,8.70
2018-12-01T09:35:33.639Z,8.80
2018-12-01T09:38:01.675Z,8.90
2018-12-01T09:40:29.718Z,9.00
2018-12-01T09:42:57.761Z,8.90
2018-12-01T09:45:26.116Z,8.90
2018-12-01T09:47:55.271Z,8.80
2018-12-01T09:50:23.322Z,8.80
2018-12-01T09:52:53.382Z,8.80
2018-12-01T09:55:23.509Z,8.70
2018-12-01T09:57:52.087Z,8.70
2018-12-01T10:00:22.034Z,8.60
2018-12-01T10:02:50.079Z,8.60
2018-12-01T10:05:19.042Z,8.50
2018-12-01T10:07:47.199Z,8.60
2018-12-01T10:10:17.254Z,8.60
2018-12-01T10:12:46.162Z,8.70
2018-12-01T10:15:18.123Z,8.80
2018-12-01T10:17:46.163Z,8.80
2018-12-01T10:20:15.625Z,9.00
2018-12-01T10:22:43.671Z,9.30
2018-12-01T10:25:13.026Z,9.40
2018-12-01T10:27:41.081Z,9.60
2018-12-01T10:30:16.328Z,9.80
2018-12-01T10:32:44.370Z,9.80
2018-12-01T10:35:14.422Z,9.80
2018-12-01T10:37:42.670Z,9.80
2018-12-01T10:40:11.769Z,9.80
2018-12-01T10:42:39.849Z,9.90
2018-12-01T10:45:16.994Z,10.10
2018-12-01T10:47:45.450Z,10.10
2018-12-01T10:50:18.658Z,10.10
2018-12-01T10:52:47.462Z,10.00
2018-12-01T10:55:24.706Z,10.00
2018-12-01T10:57:54.178Z,10.10
2018-12-01T11:00:27.534Z,10.20
2018-12-01T11:03:00.706Z,10.20
2018-12-01T11:05:29.020Z,10.20
2018-12-01T11:07:57.095Z,10.10
2018-12-01T11:10:25.154Z,10.00
2018-12-01T11:12:53.242Z,9.90
2018-12-01T11:15:21.277Z,9.80
2018-12-01T11:17:49.318Z,10.10
2018-12-01T11:20:17.366Z,10.50
2018-12-01T11:22:45.411Z,11.60
2018-12-01T11:25:13.458Z,12.90
2018-12-01T11:27:41.491Z,13.80
2018-12-01T11:30:14.652Z,14.40
2018-12-01T11:32:42.686Z,15.00
2018-12-01T11:35:10.760Z,14.40
2018-12-01T11:37:38.806Z,13.70
2018-12-01T11:40:12.926Z,13.00
2018-12-01T11:42:40.962Z,12.50
2018-12-01T11:45:12.158Z,12.10
2018-12-01T11:47:40.215Z,11.90
2018-12-01T11:50:13.451Z,11.70
2018-12-01T11:52:41.497Z,11.50
2018-12-01T11:55:13.929Z,11.40
2018-12-01T11:57:41.962Z,11.30
2018-12-01T12:00:12.454Z,11.20
2018-12-01T12:02:40.506Z,11.10
2018-12-01T12:05:09.645Z,11.00
2018-12-01T12:07:49.166Z,10.90
2018-12-01T12:10:17.300Z,11.00
2018-12-01T12:12:45.413Z,11.10
2018-12-01T12:15:13.505Z,11.20
2018-12-01T12:17:42.554Z,11.30
2018-12-01T12:20:10.958Z,11.60
2018-12-01T12:22:38.999Z,11.60
2018-12-01T12:25:08.554Z,11.80
2018-12-01T12:27:36.587Z,12.00
2018-12-01T12:30:08.830Z,11.90
2018-12-01T12:32:36.883Z,11.80
2018-12-01T12:35:05.210Z,11.70
2018-12-01T12:37:33.246Z,11.40
2018-12-01T12:40:01.289Z,11.30
2018-12-01T12:42:29.322Z,11.10
2018-12-01T12:44:57.366Z,10.90
2018-12-01T12:47:25.415Z,10.80
2018-12-01T12:49:53.447Z,10.70
2018-12-01T12:52:21.500Z,10.70
2018-12-01T12:54:49.528Z,10.70
2018-12-01T12:57:17.657Z,10.80
2018-12-01T12:59:45.698Z,10.80
2018-12-01T13:02:13.742Z,11.00
2018-12-01T13:04:41.775Z,11.00
2018-12-01T13:07:09.829Z,11.00
2018-12-01T13:09:37.866Z,11.10
2018-12-01T13:12:06.510Z,11.20
2018-12-01T13:14:34.550Z,11.20
2018-12-01T13:17:02.598Z,11.10
2018-12-01T13:19:30.637Z,11.00
2018-12-01T13:21:58.686Z,10.90
2018-12-01T13:24:26.722Z,10.90
2018-12-01T13:26:54.777Z,10.90
2018-12-01T13:29:22.818Z,10.90
2018-12-01T13:31:54.528Z,10.90
2018-12-01T13:34:18.911Z,10.90
2018-12-01T13:36:46.963Z,11.10
2018-12-01T13:39:15.109Z,11.70
2018-12-01T13:41:43.162Z,12.20
2018-12-01T13:44:11.206Z,12.70
2018-12-01T13:46:39.263Z,12.70
2018-12-01T13:49:07.301Z,12.40
2018-12-01T13:51:35.351Z,12.10
2018-12-01T13:54:03.399Z,11.70
2018-12-01T13:56:31.450Z,11.60
2018-12-01T13:58:59.533Z,11.60
2018-12-01T14:01:27.530Z,11.50
2018-12-01T14:03:55.582Z,11.30
2018-12-01T14:06:23.650Z,11.20
2018-12-01T14:08:51.686Z,11.20
2018-12-01T14:11:19.723Z,11.10
2018-12-01T14:13:47.770Z,10.90
2018-12-01T14:16:15.814Z,10.80
2018-12-01T14:18:43.858Z,10.60
2018-12-01T14:21:11.896Z,10.60
2018-12-01T14:23:39.951Z,10.60
2018-12-01T14:26:07.993Z,10.50
2018-12-01T14:28:36.042Z,10.50
2018-12-01T14:31:04.090Z,10.50
2018-12-01T14:33:32.144Z,10.40
2018-12-01T14:36:00.178Z,10.30
2018-12-01T14:38:28.338Z,10.30
2018-12-01T14:40:56.376Z,10.20
2018-12-01T14:43:24.737Z,10.10
2018-12-01T14:45:52.761Z,10.10
2018-12-01T14:48:20.814Z,10.00
2018-12-01T14:50:49.076Z,10.00
2018-12-01T14:53:17.652Z,9.90
2018-12-01T14:55:45.706Z,9.80
2018-12-01T14:58:13.774Z,9.80
2018-12-01T15:00:41.809Z,9.70
2018-12-01T15:03:09.853Z,9.70
2018-12-01T15:05:38.870Z,9.70
2018-12-01T15:08:07.258Z,9.60
2018-12-01T15:10:35.455Z,9.60
2018-12-01T15:13:03.502Z,9.50
2018-12-01T15:15:31.539Z,9.60
2018-12-01T15:17:59.590Z,9.60
2018-12-01T15:20:27.651Z,9.60
2018-12-01T15:22:57.709Z,9.50
2018-12-01T15:25:27.582Z,9.50
2018-12-01T15:27:55.690Z,9.50
2018-12-01T15:30:25.682Z,9.50
2018-12-01T15:33:15.769Z,9.50
2018-12-01T15:35:44.465Z,9.50
2018-12-01T15:38:12.561Z,9.40
2018-12-01T15:40:42.173Z,9.40
2018-12-01T15:43:10.213Z,9.40
2018-12-01T15:45:38.290Z,9.40
2018-12-01T15:48:06.937Z,9.40
2018-12-01T15:50:34.982Z,9.40
2018-12-01T15:53:03.208Z,9.40
2018-12-01T15:55:31.263Z,9.30
2018-12-01T15:57:59.290Z,9.30
2018-12-01T16:00:27.909Z,9.30
2018-12-01T16:02:55.955Z,9.30
2018-12-01T16:05:24.446Z,9.30
2018-12-01T16:07:54.590Z,9.30
2018-12-01T16:10:23.182Z,9.30
2018-12-01T16:13:23.615Z,9.30
2018-12-01T16:15:55.706Z,9.30
2018-12-01T16:18:23.742Z,9.30
2018-12-01T16:20:51.778Z,9.30
2018-12-01T16:23:19.821Z,9.20
2018-12-01T16:25:47.845Z,9.20
2018-12-01T16:28:15.918Z,9.10
2018-12-01T16:30:45.031Z,9.10
2018-12-01T16:33:15.360Z,9.00
2018-12-01T16:35:43.394Z,9.00
2018-12-01T16:38:12.882Z,9.00
2018-12-01T16:40:47.956Z,9.00
2018-12-01T16:43:16.205Z,9.00
2018-12-01T16:45:46.566Z,8.90
2018-12-01T16:48:14.600Z,8.90
2018-12-01T16:50:42.666Z,8.80
2018-12-01T16:53:12.333Z,8.90
2018-12-01T16:55:40.479Z,8.90
2018-12-01T16:58:08.505Z,8.90
2018-12-01T17:00:36.557Z,8.90
2018-12-01T17:03:04.618Z,8.90
2018-12-01T17:05:34.300Z,8.80
2018-12-01T17:08:02.349Z,8.80
2018-12-01T17:10:30.386Z,8.80
2018-12-01T17:12:58.465Z,8.80
2018-12-01T17:15:26.498Z,8.80
2018-12-01T17:17:54.550Z,8.80
2018-12-01T17:20:22.590Z,8.80
2018-12-01T17:22:54.186Z,8.80
2018-12-01T17:25:22.210Z,8.90
2018-12-01T17:27:51.263Z,8.80
2018-12-01T17:30:21.286Z,8.80
2018-12-01T17:32:49.685Z,8.80
2018-12-01T17:35:18.805Z,8.70
2018-12-01T17:37:50.055Z,8.70
2018-12-01T17:40:27.487Z,8.70
2018-12-01T17:42:56.882Z,8.70
2018-12-01T17:45:24.910Z,8.70
2018-12-01T17:47:52.947Z,8.70
2018-12-01T17:50:20.982Z,8.70
2018-12-01T17:52:51.670Z,8.80
2018-12-01T17:55:19.751Z,8.80
2018-12-01T17:57:48.377Z,8.80
2018-12-01T18:00:21.748Z,8.80
2018-12-01T18:02:50.975Z,8.80
2018-12-01T18:05:20.992Z,8.70
2018-12-01T18:07:49.037Z,8.70
2018-12-01T18:10:17.078Z,8.70
2018-12-01T18:12:45.137Z,8.70
2018-12-01T18:15:14.454Z,8.70
2018-12-01T18:17:42.493Z,8.70
2018-12-01T18:20:16.690Z,8.70
2018-12-01T18:22:45.999Z,8.70
2018-12-01T18:25:14.070Z,8.70
2018-12-01T18:27:42.117Z,8.70
2018-12-01T18:30:12.596Z,8.70
2018-12-01T18:32:40.633Z,8.80
2018-12-01T18:35:08.826Z,8.80
2018-12-01T18:37:36.842Z,8.80
2018-12-01T18:40:13.754Z,8.80
2018-12-01T18:42:41.893Z,8.80
2018-12-01T18:45:11.666Z,8.80
2018-12-01T18:47:39.702Z,8.80
2018-12-01T18:50:13.570Z,8.80
2018-12-01T18:52:42.258Z,8.80
2018-12-01T18:55:12.910Z,8.80
2018-12-01T18:57:41.101Z,8.80
2018-12-01T19:00:14.722Z,8.80
2018-12-01T19:02:43.098Z,8.80
2018-12-01T19:05:11.130Z,8.80
2018-12-01T19:07:39.174Z,8.90
2018-12-01T19:10:12.470Z,8.90
2018-12-01T19:12:40.550Z,8.90
2018-12-01T19:15:10.083Z,8.90
2018-12-01T19:17:38.223Z,8.90
2018-12-01T19:20:10.246Z,8.90
2018-12-01T19:22:38.302Z,8.80
2018-12-01T19:25:10.606Z,8.80
2018-12-01T19:27:38.646Z,8.70
2018-12-01T19:30:09.858Z,8.70
2018-12-01T19:32:37.900Z,8.80
2018-12-01T19:35:08.277Z,8.80
2018-12-01T19:37:36.317Z,8.80
2018-12-01T19:40:10.603Z,8.80
2018-12-01T19:42:38.813Z,8.80
2018-12-01T19:45:07.074Z,8.80
2018-12-01T19:47:35.111Z,8.90
2018-12-01T19:50:03.646Z,8.90
2018-12-01T19:52:31.685Z,8.90
2018-12-01T19:54:59.739Z,8.90
2018-12-01T19:57:27.818Z,8.90
2018-12-01T19:59:55.902Z,8.90
2018-12-01T20:02:23.926Z,8.90
2018-12-01T20:04:51.961Z,8.90
2018-12-01T20:07:20.018Z,8.90
2018-12-01T20:09:48.129Z,8.90
2018-12-01T20:12:16.219Z,8.90
2018-12-01T20:14:44.243Z,8.90
2018-12-01T20:17:12.283Z,8.90
2018-12-01T20:19:40.410Z,8.90
2018-12-01T20:22:08.450Z,8.90
2018-12-01T20:24:36.486Z,8.90
2018-12-01T20:27:05.023Z,8.90
2018-12-01T20:29:33.066Z,8.90
2018-12-01T20:32:01.105Z,9.00
2018-12-01T20:34:29.134Z,9.00
2018-12-01T20:37:01.871Z,9.00
2018-12-01T20:39:34.154Z,9.00
2018-12-01T20:42:02.246Z,9.10
2018-12-01T20:44:30.276Z,9.10
2018-12-01T20:46:58.310Z,9.10
2018-12-01T20:49:26.342Z,9.00
2018-12-01T20:51:54.399Z,9.00
2018-12-01T20:54:31.430Z,9.10
2018-12-01T20:57:04.465Z,9.00
2018-12-01T20:59:32.502Z,9.00
2018-12-01T21:02:00.623Z,9.00
2018-12-01T21:04:28.658Z,9.00
2018-12-01T21:06:56.858Z,9.00
2018-12-01T21:09:24.873Z,8.90
2018-12-01T21:11:52.977Z,9.00
2018-12-01T21:14:21.002Z,9.00
2018-12-01T21:16:49.026Z,9.00
2018-12-01T21:19:17.049Z,9.00
2018-12-01T21:21:45.263Z,9.00
2018-12-01T21:24:13.278Z,9.00
2018-12-01T21:26:41.467Z,9.00
2018-12-01T21:29:09.482Z,9.00
2018-12-01T21:31:37.637Z,9.00
2018-12-01T21:34:06.451Z,9.00
2018-12-01T21:36:34.458Z,9.00
2018-12-01T21:39:02.546Z,9.00
2018-12-01T21:41:30.558Z,9.00
2018-12-01T21:43:58.714Z,9.00
2018-12-01T21:46:26.735Z,9.10
2018-12-01T21:48:54.918Z,9.00
2018-12-01T21:51:22.930Z,9.10
2018-12-01T21:53:51.085Z,9.00
2018-12-01T21:56:19.102Z,9.10
2018-12-01T21:58:47.251Z,9.10
2018-12-01T22:01:15.268Z,9.10
2018-12-01T22:03:43.454Z,9.20
2018-12-01T22:06:11.504Z,9.20
2018-12-01T22:08:39.686Z,9.20
2018-12-01T22:11:08.971Z,9.20
2018-12-01T22:13:36.654Z,9.20
2018-12-01T22:16:05.371Z,9.20
2018-12-01T22:18:33.392Z,9.20
2018-12-01T22:21:01.416Z,9.20
2018-12-01T22:23:29.430Z,9.20
2018-12-01T22:25:57.454Z,9.20
2018-12-01T22:28:25.474Z,9.20
2018-12-01T22:30:53.655Z,9.20
2018-12-01T22:33:23.245Z,9.10
2018-12-01T22:35:51.272Z,9.20
2018-12-01T22:38:19.291Z,9.20
2018-12-01T22:40:47.555Z,9.10
2018-12-01T22:43:15.562Z,9.10
2018-12-01T22:45:43.578Z,9.10
2018-12-01T22:48:13.286Z,9.10
2018-12-01T22:50:42.822Z,9.10
2018-12-01T22:53:10.845Z,9.20
2018-12-01T22:55:39.897Z,9.30
2018-12-01T22:58:10.030Z,9.30
2018-12-01T23:00:41.740Z,9.30
2018-12-01T23:03:10.498Z,9.20
2018-12-01T23:05:38.562Z,9.20
2018-12-01T23:08:11.278Z,9.20
2018-12-01T23:10:39.304Z,9.20
2018-12-01T23:13:07.480Z,9.20
2018-12-01T23:15:35.509Z,9.20
2018-12-01T23:18:04.542Z,9.20
2018-12-01T23:20:32.562Z,9.20
2018-12-01T23:23:00.585Z,9.10
2018-12-01T23:25:28.607Z,9.20
2018-12-01T23:27:56.617Z,9.20
2018-12-01T23:30:25.915Z,9.20
2018-12-01T23:32:57.040Z,9.10
2018-12-01T23:35:25.054Z,9.10
2018-12-01T23:37:53.066Z,9.10
2018-12-01T23:40:21.085Z,9.10
2018-12-01T23:42:49.098Z,9.20
2018-12-01T23:45:19.210Z,9.20
2018-12-01T23:47:47.604Z,9.20
2018-12-01T23:50:24.451Z,9.20
2018-12-01T23:52:53.698Z,9.20
2018-12-01T23:55:21.721Z,9.10
2018-12-01T23:57:49.733Z,9.10
